createdAt,value
2018-12-30T00:01:38.428Z,3.10
2018-12-30T00:04:05.176Z,3.53
2018-12-30T00:06:32.127Z,3.67
2018-12-30T00:08:58.761Z,2.60
2018-12-30T00:11:25.520Z,3.20
2018-12-30T00:13:51.942Z,3.60
2018-12-30T00:16:18.346Z,3.30
2018-12-30T00:18:45.080Z,3.60
2018-12-30T00:21:11.626Z,4.03
2018-12-30T00:23:37.901Z,3.10
2018-12-30T00:26:04.149Z,3.40
2018-12-30T00:28:30.521Z,3.20
2018-12-30T00:30:57.213Z,3.50
2018-12-30T00:33:23.623Z,3.40
2018-12-30T00:35:50.127Z,3.67
2018-12-30T00:38:16.470Z,3.53
2018-12-30T00:40:42.733Z,2.77
2018-12-30T00:43:09.165Z,2.70
2018-12-30T00:45:35.447Z,3.80
2018-12-30T00:48:01.772Z,3.07
2018-12-30T00:50:28.118Z,3.10
2018-12-30T00:52:54.851Z,3.00
2018-12-30T00:55:21.136Z,2.90
2018-12-30T00:57:47.742Z,3.00
2018-12-30T01:00:14.091Z,3.30
2018-12-30T01:02:40.431Z,3.57
2018-12-30T01:05:06.697Z,2.50
2018-12-30T01:07:33.379Z,3.27
2018-12-30T01:09:59.646Z,2.90
2018-12-30T01:12:25.915Z,2.80
2018-12-30T01:14:52.191Z,3.40
2018-12-30T01:17:18.851Z,3.40
2018-12-30T01:19:45.103Z,2.93
2018-12-30T01:22:11.377Z,2.80
2018-12-30T01:24:37.820Z,2.57
2018-12-30T01:27:04.166Z,2.90
2018-12-30T01:29:30.530Z,2.80
2018-12-30T01:31:56.844Z,2.80
2018-12-30T01:34:23.212Z,2.63
2018-12-30T01:36:50.424Z,3.10
2018-12-30T01:39:16.711Z,3.43
2018-12-30T01:41:43.278Z,2.60
2018-12-30T01:44:09.639Z,3.00
2018-12-30T01:46:36.322Z,2.97
2018-12-30T01:49:02.959Z,2.70
2018-12-30T01:51:32.999Z,3.03
2018-12-30T01:53:57.274Z,2.77
2018-12-30T01:56:23.587Z,2.90
2018-12-30T01:58:50.235Z,2.50
2018-12-30T02:01:17.384Z,4.23
2018-12-30T02:03:43.768Z,2.43
2018-12-30T02:06:10.116Z,2.30
2018-12-30T02:08:36.710Z,2.83
2018-12-30T02:11:03.237Z,2.57
2018-12-30T02:13:29.675Z,2.40
2018-12-30T02:15:55.998Z,2.57
2018-12-30T02:18:22.352Z,2.57
2018-12-30T02:20:48.730Z,2.43
2018-12-30T02:23:14.986Z,2.80
2018-12-30T02:25:41.347Z,2.50
2018-12-30T02:28:08.088Z,2.10
2018-12-30T02:30:34.399Z,2.80
2018-12-30T02:33:00.748Z,2.57
2018-12-30T02:35:27.073Z,2.70
2018-12-30T02:37:53.404Z,2.63
2018-12-30T02:40:19.800Z,2.90
2018-12-30T02:42:46.527Z,2.50
2018-12-30T02:45:12.821Z,2.60
2018-12-30T02:47:39.076Z,2.60
2018-12-30T02:50:05.335Z,2.20
2018-12-30T02:52:31.609Z,2.80
2018-12-30T02:54:57.882Z,2.30
2018-12-30T02:57:24.502Z,2.67
2018-12-30T02:59:50.849Z,2.70
2018-12-30T03:02:17.225Z,3.40
2018-12-30T03:04:43.802Z,2.93
2018-12-30T03:07:10.167Z,2.37
2018-12-30T03:09:36.586Z,2.80
2018-12-30T03:12:03.340Z,2.40
2018-12-30T03:14:29.939Z,2.00
2018-12-30T03:16:56.315Z,2.30
2018-12-30T03:19:22.583Z,2.20
2018-12-30T03:21:48.862Z,2.67
2018-12-30T03:24:15.258Z,2.33
2018-12-30T03:26:41.528Z,2.47
2018-12-30T03:29:07.875Z,2.03
2018-12-30T03:31:34.501Z,2.30
2018-12-30T03:34:01.221Z,2.80
2018-12-30T03:36:27.544Z,2.57
2018-12-30T03:38:54.116Z,3.00
2018-12-30T03:41:20.885Z,2.10
2018-12-30T03:43:47.374Z,2.50
2018-12-30T03:46:18.194Z,2.50
2018-12-30T03:48:42.052Z,2.50
2018-12-30T03:51:08.467Z,2.07
2018-12-30T03:53:34.797Z,2.10
2018-12-30T03:56:01.610Z,1.97
2018-12-30T03:58:27.925Z,2.47
2018-12-30T04:00:54.255Z,1.87
2018-12-30T04:03:20.600Z,2.13
2018-12-30T04:05:46.874Z,2.20
2018-12-30T04:08:13.570Z,2.20
2018-12-30T04:10:40.335Z,2.57
2018-12-30T04:13:06.583Z,2.57
2018-12-30T04:15:33.077Z,2.67
2018-12-30T04:17:59.614Z,2.40
2018-12-30T04:20:26.002Z,2.27
2018-12-30T04:22:52.310Z,2.00
2018-12-30T04:25:18.868Z,2.40
2018-12-30T04:27:45.243Z,2.10
2018-12-30T04:30:11.635Z,2.03
2018-12-30T04:32:38.225Z,3.00
2018-12-30T04:35:04.483Z,2.50
2018-12-30T04:37:30.969Z,2.17
2018-12-30T04:39:57.312Z,2.10
2018-12-30T04:42:24.095Z,2.00
2018-12-30T04:44:50.642Z,2.47
2018-12-30T04:47:16.912Z,2.63
2018-12-30T04:49:43.307Z,1.77
2018-12-30T04:52:09.567Z,2.10
2018-12-30T04:54:35.842Z,2.10
2018-12-30T04:57:02.207Z,2.77
2018-12-30T04:59:28.760Z,2.10
2018-12-30T05:01:55.268Z,2.10
2018-12-30T05:04:21.569Z,1.93
2018-12-30T05:06:47.817Z,2.20
2018-12-30T05:09:14.207Z,2.10
2018-12-30T05:11:40.545Z,2.10
2018-12-30T05:14:06.891Z,1.83
2018-12-30T05:16:33.409Z,1.47
2018-12-30T05:18:59.974Z,1.60
2018-12-30T05:21:26.317Z,2.00
2018-12-30T05:23:52.845Z,2.07
2018-12-30T05:26:19.386Z,2.27
2018-12-30T05:28:45.658Z,1.90
2018-12-30T05:31:12.000Z,1.93
2018-12-30T05:33:38.634Z,1.93
2018-12-30T05:36:04.929Z,1.73
2018-12-30T05:38:31.486Z,1.70
2018-12-30T05:40:58.142Z,2.37
2018-12-30T05:43:24.651Z,2.17
2018-12-30T05:45:50.995Z,2.00
2018-12-30T05:48:17.661Z,2.70
2018-12-30T05:50:44.060Z,1.90
2018-12-30T05:53:10.345Z,1.63
2018-12-30T05:55:36.947Z,1.80
2018-12-30T05:58:03.282Z,1.63
2018-12-30T06:00:29.527Z,1.67
2018-12-30T06:02:55.811Z,1.73
2018-12-30T06:05:22.892Z,1.57
2018-12-30T06:07:49.464Z,1.73
2018-12-30T06:10:15.740Z,1.80
2018-12-30T06:12:41.987Z,1.93
2018-12-30T06:15:08.249Z,2.30
2018-12-30T06:17:34.506Z,1.77
2018-12-30T06:20:00.788Z,1.60
2018-12-30T06:22:27.087Z,1.90
2018-12-30T06:24:53.908Z,1.87
2018-12-30T06:27:20.183Z,1.60
2018-12-30T06:29:46.507Z,1.63
2018-12-30T06:32:12.781Z,1.50
2018-12-30T06:34:39.056Z,2.03
2018-12-30T06:37:05.330Z,2.37
2018-12-30T06:39:31.586Z,1.97
2018-12-30T06:41:58.385Z,2.10
2018-12-30T06:44:24.807Z,1.80
2018-12-30T06:46:51.365Z,1.80
2018-12-30T06:49:17.726Z,1.80
2018-12-30T06:51:44.128Z,1.77
2018-12-30T06:54:10.394Z,1.57
2018-12-30T06:56:36.655Z,1.87
2018-12-30T06:59:03.026Z,1.87
2018-12-30T07:01:29.296Z,1.47
2018-12-30T07:03:55.665Z,1.70
2018-12-30T07:06:22.389Z,1.40
2018-12-30T07:08:48.649Z,2.00
2018-12-30T07:11:14.907Z,2.03
2018-12-30T07:14:39.804Z,1.97
2018-12-30T07:17:06.437Z,1.67
2018-12-30T07:19:32.708Z,1.47
2018-12-30T07:21:58.975Z,1.87
2018-12-30T07:24:25.254Z,2.07
2018-12-30T07:26:51.522Z,1.83
2018-12-30T07:29:17.897Z,1.70
2018-12-30T07:31:44.143Z,3.00
2018-12-30T07:34:10.620Z,2.00
2018-12-30T07:36:36.904Z,2.00
2018-12-30T07:39:03.482Z,1.40
2018-12-30T07:41:29.736Z,1.80
2018-12-30T07:43:56.100Z,1.77
2018-12-30T07:46:22.489Z,1.60
2018-12-30T07:48:49.115Z,2.00
2018-12-30T07:51:15.386Z,1.80
2018-12-30T07:53:41.652Z,1.90
2018-12-30T07:56:07.921Z,1.70
2018-12-30T07:58:34.191Z,1.80
2018-12-30T08:01:00.700Z,1.30
2018-12-30T08:03:26.965Z,1.80
2018-12-30T08:05:53.317Z,1.70
2018-12-30T08:08:19.771Z,1.43
2018-12-30T08:10:47.591Z,1.60
2018-12-30T08:13:13.993Z,1.70
2018-12-30T08:15:40.533Z,1.70
2018-12-30T08:18:06.882Z,1.80
2018-12-30T08:20:33.453Z,1.53
2018-12-30T08:23:01.267Z,1.57
2018-12-30T08:25:27.604Z,1.80
2018-12-30T08:27:53.931Z,1.70
2018-12-30T08:30:21.296Z,2.77
2018-12-30T08:32:47.713Z,2.17
2018-12-30T08:35:13.955Z,1.60
2018-12-30T08:37:40.320Z,1.63
2018-12-30T08:40:06.687Z,1.30
2018-12-30T08:42:33.073Z,1.70
2018-12-30T08:44:59.409Z,1.30
2018-12-30T08:47:26.014Z,2.03
2018-12-30T08:49:52.568Z,1.77
2018-12-30T08:52:18.882Z,1.60
2018-12-30T08:54:45.227Z,1.80
2018-12-30T08:57:11.636Z,1.80
2018-12-30T08:59:38.448Z,2.07
2018-12-30T09:02:04.790Z,1.47
2018-12-30T09:04:31.386Z,1.50
2018-12-30T09:06:57.645Z,1.60
2018-12-30T09:09:24.054Z,1.60
2018-12-30T09:11:50.591Z,1.77
2018-12-30T09:14:17.249Z,1.20
2018-12-30T09:16:43.879Z,2.20
2018-12-30T09:19:10.274Z,1.50
2018-12-30T09:21:36.857Z,1.53
2018-12-30T09:24:03.217Z,1.47
2018-12-30T09:26:29.509Z,1.20
2018-12-30T09:28:56.194Z,1.30
2018-12-30T09:31:23.023Z,1.40
2018-12-30T09:33:49.283Z,1.40
2018-12-30T09:36:16.890Z,2.00
2018-12-30T09:38:43.575Z,1.20
2018-12-30T09:41:10.138Z,1.77
2018-12-30T09:43:36.747Z,1.20
2018-12-30T09:46:03.683Z,1.63
2018-12-30T09:48:33.902Z,1.20
2018-12-30T09:50:58.769Z,1.57
2018-12-30T09:53:25.623Z,1.53
2018-12-30T09:55:52.234Z,1.27
2018-12-30T09:58:18.829Z,2.90
2018-12-30T10:00:47.527Z,1.90
2018-12-30T10:03:13.521Z,3.80
2018-12-30T10:05:40.128Z,3.00
2018-12-30T10:08:06.503Z,3.50
2018-12-30T10:10:33.147Z,2.97
2018-12-30T10:12:59.464Z,3.00
2018-12-30T10:15:25.716Z,3.20
2018-12-30T10:17:53.159Z,3.17
2018-12-30T10:20:20.395Z,3.50
2018-12-30T10:22:46.671Z,6.17
2018-12-30T10:25:13.021Z,3.80
2018-12-30T10:27:40.012Z,3.13
2018-12-30T10:30:06.454Z,3.77
2018-12-30T10:32:33.499Z,3.70
2018-12-30T10:34:59.954Z,4.00
2018-12-30T10:37:26.210Z,4.37
2018-12-30T10:39:52.484Z,4.50
2018-12-30T10:42:18.754Z,3.03
2018-12-30T10:44:45.146Z,3.27
2018-12-30T10:47:11.521Z,3.60
2018-12-30T10:49:38.019Z,3.67
2018-12-30T10:52:05.201Z,3.40
2018-12-30T10:54:32.670Z,4.13
2018-12-30T10:56:58.968Z,3.50
2018-12-30T10:59:25.838Z,4.17
2018-12-30T11:01:52.269Z,3.60
2018-12-30T11:04:20.509Z,3.77
2018-12-30T11:06:47.038Z,3.77
2018-12-30T11:09:13.714Z,4.00
2018-12-30T11:11:40.352Z,3.93
2018-12-30T11:14:06.723Z,4.70
2018-12-30T11:16:33.165Z,4.03
2018-12-30T11:18:59.421Z,3.70
2018-12-30T11:21:26.003Z,6.73
2018-12-30T11:23:52.277Z,5.90
2018-12-30T11:26:18.870Z,5.97
2018-12-30T11:28:45.508Z,5.23
2018-12-30T11:31:11.836Z,3.70
2018-12-30T11:33:38.481Z,6.03
2018-12-30T11:36:04.759Z,4.30
2018-12-30T11:38:31.097Z,4.67
2018-12-30T11:40:57.361Z,3.50
2018-12-30T11:43:23.710Z,3.10
2018-12-30T11:45:50.065Z,3.73
2018-12-30T11:48:16.436Z,4.57
2018-12-30T11:50:42.699Z,3.60
2018-12-30T11:53:08.972Z,3.73
2018-12-30T11:55:35.503Z,3.63
2018-12-30T11:58:01.785Z,3.63
2018-12-30T12:00:28.046Z,3.97
2018-12-30T12:02:54.628Z,3.57
2018-12-30T12:05:20.887Z,4.80
2018-12-30T12:07:47.243Z,4.30
2018-12-30T12:10:13.593Z,4.13
2018-12-30T12:12:40.166Z,4.03
2018-12-30T12:15:06.790Z,4.07
2018-12-30T12:17:33.167Z,3.80
2018-12-30T12:19:59.480Z,5.33
2018-12-30T12:22:25.764Z,4.20
2018-12-30T12:24:52.030Z,3.57
2018-12-30T12:27:18.306Z,4.73
2018-12-30T12:29:44.651Z,4.47
2018-12-30T12:32:10.995Z,5.63
2018-12-30T12:34:37.267Z,4.20
2018-12-30T12:37:03.553Z,4.60
2018-12-30T12:39:30.084Z,4.70
2018-12-30T12:41:56.425Z,3.37
2018-12-30T12:44:22.682Z,4.37
2018-12-30T12:46:49.291Z,3.87
2018-12-30T12:49:15.823Z,4.40
2018-12-30T12:51:42.594Z,3.80
2018-12-30T12:54:08.922Z,3.80
2018-12-30T12:56:35.448Z,3.70
2018-12-30T12:59:01.997Z,5.60
2018-12-30T13:01:28.539Z,4.63
2018-12-30T13:03:54.837Z,3.47
2018-12-30T13:06:21.112Z,3.03
2018-12-30T13:08:47.386Z,4.00
2018-12-30T13:11:13.666Z,3.50
2018-12-30T13:13:39.934Z,3.03
2018-12-30T13:16:06.212Z,4.10
2018-12-30T13:18:32.658Z,3.50
2018-12-30T13:20:58.921Z,3.80
2018-12-30T13:23:25.242Z,3.33
2018-12-30T13:25:51.633Z,3.77
2018-12-30T13:28:18.017Z,4.03
2018-12-30T13:30:44.286Z,4.17
2018-12-30T13:33:10.551Z,3.53
2018-12-30T13:35:43.360Z,4.00
2018-12-30T13:38:04.962Z,3.40
2018-12-30T13:40:31.215Z,3.80
2018-12-30T13:42:57.493Z,4.63
2018-12-30T13:45:23.781Z,3.50
2018-12-30T13:47:50.141Z,3.00
2018-12-30T13:50:16.409Z,3.57
2018-12-30T13:52:42.785Z,3.63
2018-12-30T13:55:09.061Z,3.40
2018-12-30T13:57:35.596Z,3.90
2018-12-30T14:00:01.950Z,3.60
2018-12-30T14:02:28.298Z,2.70
2018-12-30T14:04:54.628Z,3.30
2018-12-30T14:07:20.961Z,3.90
2018-12-30T14:09:47.259Z,2.90
2018-12-30T14:12:13.554Z,2.67
2018-12-30T14:14:40.894Z,5.10
2018-12-30T14:17:07.228Z,3.00
2018-12-30T14:19:33.509Z,4.60
2018-12-30T14:21:59.771Z,3.37
2018-12-30T14:24:26.341Z,2.90
2018-12-30T14:26:59.525Z,3.77
2018-12-30T14:29:20.662Z,3.00
2018-12-30T14:31:47.185Z,3.20
2018-12-30T14:34:13.442Z,3.73
2018-12-30T14:36:40.064Z,3.23
2018-12-30T14:39:06.316Z,3.30
2018-12-30T14:41:32.643Z,2.90
2018-12-30T14:43:58.909Z,3.17
2018-12-30T14:46:33.614Z,2.97
2018-12-30T14:48:53.180Z,2.80
2018-12-30T14:51:19.824Z,3.33
2018-12-30T14:53:46.351Z,3.23
2018-12-30T14:56:12.918Z,3.00
2018-12-30T14:58:39.173Z,4.00
2018-12-30T15:01:05.419Z,3.10
2018-12-30T15:03:32.021Z,2.97
2018-12-30T15:05:58.260Z,3.43
2018-12-30T15:08:24.618Z,2.87
2018-12-30T15:10:50.955Z,3.10
2018-12-30T15:13:17.556Z,4.40
2018-12-30T15:15:44.111Z,3.90
2018-12-30T15:18:10.750Z,3.43
2018-12-30T15:20:37.075Z,2.83
2018-12-30T15:23:03.354Z,5.00
2018-12-30T15:25:29.620Z,3.10
2018-12-30T15:27:55.885Z,3.13
2018-12-30T15:30:22.173Z,3.40
2018-12-30T15:32:48.469Z,3.00
2018-12-30T15:35:14.991Z,3.30
2018-12-30T15:37:41.310Z,3.30
2018-12-30T15:40:07.570Z,3.17
2018-12-30T15:42:33.909Z,3.50
2018-12-30T15:45:00.520Z,3.13
2018-12-30T15:47:27.195Z,2.70
2018-12-30T15:49:53.727Z,3.00
2018-12-30T15:52:20.013Z,3.00
2018-12-30T15:54:46.289Z,2.90
2018-12-30T15:57:12.839Z,4.17
2018-12-30T15:59:39.229Z,3.00
2018-12-30T16:02:05.490Z,3.60
2018-12-30T16:04:32.043Z,3.40
2018-12-30T16:06:58.295Z,3.10
2018-12-30T16:09:24.564Z,2.67
2018-12-30T16:11:50.823Z,3.90
2018-12-30T16:14:17.095Z,3.40
2018-12-30T16:16:43.340Z,3.17
2018-12-30T16:19:09.586Z,3.47
2018-12-30T16:21:35.854Z,2.90
2018-12-30T16:24:02.154Z,3.00
2018-12-30T16:26:28.415Z,3.07
2018-12-30T16:28:54.665Z,3.07
2018-12-30T16:31:27.913Z,3.50
2018-12-30T16:33:49.226Z,2.60
2018-12-30T16:36:15.811Z,3.93
2018-12-30T16:38:42.129Z,4.60
2018-12-30T16:41:08.375Z,3.23
2018-12-30T16:43:34.722Z,3.00
2018-12-30T16:46:00.994Z,3.50
2018-12-30T16:48:27.881Z,3.13
2018-12-30T16:50:54.303Z,3.73
2018-12-30T16:53:20.555Z,2.97
2018-12-30T16:55:46.853Z,3.30
2018-12-30T16:58:13.189Z,2.80
2018-12-30T17:00:39.541Z,3.50
2018-12-30T17:27:20.946Z,4.80
2018-12-30T17:29:47.217Z,8.23
2018-12-30T17:32:13.837Z,8.37
2018-12-30T17:34:40.113Z,9.13
2018-12-30T17:37:06.381Z,9.13
2018-12-30T17:39:32.745Z,9.87
2018-12-30T17:42:19.542Z,10.13
2018-12-30T17:44:47.638Z,11.90
2018-12-30T17:47:15.935Z,12.10
2018-12-30T17:50:57.854Z,10.60
2018-12-30T17:53:25.345Z,12.20
2018-12-30T17:55:52.807Z,11.43
2018-12-30T17:58:20.251Z,11.47
2018-12-30T18:00:47.424Z,14.30
2018-12-30T18:03:14.591Z,13.93
2018-12-30T18:05:42.070Z,12.67
2018-12-30T18:08:09.272Z,13.90
2018-12-30T18:10:36.481Z,14.30
2018-12-30T18:13:04.405Z,17.00
2018-12-30T18:15:31.647Z,15.80
2018-12-30T18:17:59.132Z,17.17
2018-12-30T18:20:27.100Z,17.67
2018-12-30T18:22:54.267Z,17.47
2018-12-30T18:25:22.072Z,18.57
2018-12-30T18:27:49.245Z,19.67
2018-12-30T18:30:16.760Z,18.30
2018-12-30T18:32:43.929Z,21.87
2018-12-30T18:35:11.377Z,19.47
2018-12-30T18:37:38.545Z,19.07
2018-12-30T18:40:05.997Z,20.97
2018-12-30T18:42:33.548Z,18.47
2018-12-30T18:45:01.048Z,20.60
2018-12-30T18:47:28.471Z,21.27
2018-12-30T18:49:56.027Z,22.43
2018-12-30T18:52:23.206Z,20.50
2018-12-30T18:54:50.396Z,23.00
2018-12-30T18:57:17.687Z,20.30
2018-12-30T18:59:44.850Z,20.47
2018-12-30T19:02:12.133Z,22.57
2018-12-30T19:04:39.354Z,21.60
2018-12-30T19:07:06.593Z,19.47
2018-12-30T19:09:33.903Z,20.27
2018-12-30T19:12:01.066Z,21.93
2018-12-30T19:14:28.511Z,19.53
2018-12-30T19:16:55.860Z,19.30
2018-12-30T19:19:23.092Z,20.70
2018-12-30T19:21:50.242Z,19.53
2018-12-30T19:24:17.581Z,20.00
2018-12-30T19:26:45.121Z,19.90
2018-12-30T19:29:12.367Z,21.00
2018-12-30T19:31:39.516Z,21.37
2018-12-30T19:34:07.375Z,19.40
2018-12-30T19:36:34.531Z,19.93
2018-12-30T19:39:02.244Z,20.93
2018-12-30T19:41:29.762Z,21.30
2018-12-30T19:43:56.909Z,18.80
2018-12-30T19:46:24.162Z,22.90
2018-12-30T19:48:51.380Z,19.57
2018-12-30T19:51:18.918Z,21.57
2018-12-30T19:53:46.214Z,22.60
2018-12-30T19:56:13.369Z,21.40
2018-12-30T19:58:40.908Z,21.43
2018-12-30T20:01:08.072Z,22.37
2018-12-30T20:06:13.208Z,22.10
2018-12-30T20:08:40.376Z,22.07
2018-12-30T20:11:08.317Z,22.97
2018-12-30T20:13:37.744Z,22.20
2018-12-30T20:16:04.661Z,22.10
2018-12-30T20:18:31.830Z,23.40
2018-12-30T20:20:59.401Z,26.40
2018-12-30T20:23:26.552Z,24.10
2018-12-30T20:25:54.045Z,25.97
2018-12-30T20:28:21.295Z,22.77
2018-12-30T20:30:49.911Z,23.80
2018-12-30T20:33:17.547Z,25.03
2018-12-30T20:35:44.773Z,23.57
2018-12-30T20:38:11.937Z,25.03
2018-12-30T20:40:39.411Z,26.87
2018-12-30T20:43:06.589Z,26.83
2018-12-30T20:45:33.885Z,25.60
2018-12-30T20:48:01.055Z,25.97
2018-12-30T20:50:28.217Z,24.40
2018-12-30T20:52:55.390Z,24.77
2018-12-30T20:55:22.930Z,27.70
2018-12-30T20:57:50.090Z,26.30
2018-12-30T21:00:17.286Z,25.67
2018-12-30T21:02:44.414Z,26.40
2018-12-30T21:05:11.588Z,25.77
2018-12-30T21:07:38.806Z,26.07
2018-12-30T21:10:05.979Z,25.40
2018-12-30T21:12:33.163Z,22.47
2018-12-30T21:15:00.306Z,22.93
2018-12-30T21:17:27.860Z,25.57
2018-12-30T21:19:56.106Z,19.97
2018-12-30T21:22:23.335Z,21.80
2018-12-30T21:24:50.544Z,21.27
2018-12-30T21:27:17.914Z,21.43
2018-12-30T21:29:45.053Z,19.63
2018-12-30T21:32:12.350Z,20.77
2018-12-30T21:34:39.574Z,20.90
2018-12-30T21:37:07.143Z,19.30
2018-12-30T21:39:34.300Z,18.50
2018-12-30T21:42:01.470Z,19.80
2018-12-30T21:44:28.676Z,17.73
2018-12-30T21:46:56.292Z,16.90
2018-12-30T21:49:24.870Z,15.90
2018-12-30T21:51:52.014Z,15.57
2018-12-30T21:54:19.202Z,16.13
2018-12-30T21:56:46.644Z,18.03
2018-12-30T21:59:14.180Z,17.87
2018-12-30T22:01:41.350Z,16.67
2018-12-30T22:04:08.501Z,14.80
2018-12-30T22:06:35.663Z,15.27
2018-12-30T22:09:03.125Z,15.43
2018-12-30T22:11:32.011Z,14.73
2018-12-30T22:13:59.264Z,14.10
2018-12-30T22:16:26.843Z,14.37
2018-12-30T22:18:55.212Z,15.63
2018-12-30T22:21:22.342Z,15.73
2018-12-30T22:23:49.517Z,15.47
2018-12-30T22:26:16.753Z,16.03
2018-12-30T22:28:44.260Z,15.97
2018-12-30T22:31:11.729Z,14.20
2018-12-30T22:33:39.174Z,16.20
2018-12-30T22:36:06.345Z,14.03
2018-12-30T22:38:33.638Z,13.50
2018-12-30T22:41:00.810Z,14.47
2018-12-30T22:43:27.970Z,18.23
2018-12-30T22:45:55.134Z,14.77
2018-12-30T22:48:22.311Z,14.70
2018-12-30T22:50:49.786Z,15.30
2018-12-30T22:53:17.256Z,14.10
2018-12-30T22:55:44.416Z,16.07
2018-12-30T22:58:11.664Z,17.00
2018-12-30T23:00:39.703Z,14.07
2018-12-30T23:03:07.113Z,14.77
2018-12-30T23:05:34.281Z,13.80
2018-12-30T23:08:01.715Z,13.90
2018-12-30T23:10:28.894Z,13.67
2018-12-30T23:12:56.432Z,13.73
2018-12-30T23:15:23.612Z,14.00
2018-12-30T23:17:51.158Z,13.17
2018-12-30T23:20:18.483Z,14.50
2018-12-30T23:22:45.653Z,14.10
2018-12-30T23:25:13.085Z,15.63
2018-12-30T23:27:40.610Z,13.90
2018-12-30T23:30:08.058Z,14.70
2018-12-30T23:32:35.245Z,17.53
2018-12-30T23:35:02.772Z,16.80
2018-12-30T23:37:30.229Z,15.80
2018-12-30T23:42:43.593Z,17.73
2018-12-30T23:45:11.053Z,18.90
2018-12-30T23:47:38.239Z,18.60
2018-12-30T23:50:05.461Z,18.67
2018-12-30T23:52:33.034Z,22.20
2018-12-30T23:55:00.612Z,23.20
2018-12-30T23:57:27.797Z,23.50
2018-12-30T23:59:55.197Z,21.80
